createdAt,value
2022-09-12T00:03:48.975Z,0.06
2022-09-12T00:18:48.819Z,0.05
2022-09-12T00:33:48.719Z,0.1
2022-09-12T00:48:48.672Z,0.14
2022-09-12T01:03:48.482Z,0.04
2022-09-12T01:18:48.512Z,0.12
2022-09-12T01:33:49.252Z,0.25
2022-09-12T01:48:49.213Z,0.06
2022-09-12T02:03:49.158Z,0.08
2022-09-12T02:18:49.270Z,0.11
2022-09-12T02:33:48.537Z,0.14
2022-09-12T02:48:48.443Z,0.08
2022-09-12T03:03:48.431Z,0.26
2022-09-12T03:18:48.417Z,0.11
2022-09-12T03:33:48.504Z,0.08
2022-09-12T03:48:48.539Z,0.09
2022-09-12T04:03:48.864Z,3.77
2022-09-12T04:18:49.040Z,0.18
2022-09-12T04:33:49.148Z,0.05
2022-09-12T04:48:49.255Z,0.16
2022-09-12T05:03:48.815Z,0.13
2022-09-12T05:18:49.107Z,0.14
2022-09-12T05:33:48.473Z,0.18
2022-09-12T05:48:50.521Z,0.57
2022-09-12T06:03:48.543Z,0.07
2022-09-12T06:18:49.149Z,0.23
2022-09-12T06:33:49.159Z,0.28
2022-09-12T06:48:49.063Z,0.14
2022-09-12T07:03:48.757Z,0.11
2022-09-12T07:18:50.210Z,0.21
2022-09-12T07:33:52.405Z,0.16
2022-09-12T07:48:49.012Z,0.14
2022-09-12T08:03:49.261Z,0.11
2022-09-12T08:18:49.103Z,0.05
2022-09-12T08:33:49.010Z,0.03
2022-09-12T08:48:48.797Z,0.13
2022-09-12T09:03:49.376Z,0.05
2022-09-12T09:18:48.715Z,0.07
2022-09-12T09:33:48.997Z,0.08
2022-09-12T09:48:49.234Z,0.12
2022-09-12T10:03:49.276Z,0.07
2022-09-12T10:18:49.075Z,0.02
2022-09-12T10:33:49.074Z,0.01
2022-09-12T10:48:49.455Z,0.28
2022-09-12T11:03:48.874Z,0.17
2022-09-12T11:18:48.840Z,0.04
2022-09-12T11:33:49.125Z,0.09
2022-09-12T11:48:48.919Z,0.07
2022-09-12T12:03:48.943Z,0.14
2022-09-12T12:18:49.140Z,0.14
2022-09-12T12:33:49.081Z,0.06
2022-09-12T12:48:48.966Z,0.02
2022-09-12T13:03:48.884Z,0.09
2022-09-12T13:18:48.805Z,0.29
2022-09-12T13:33:48.777Z,0.15
2022-09-12T13:48:48.901Z,0.38
2022-09-12T14:03:48.586Z,0.46
2022-09-12T14:18:48.750Z,0.13
2022-09-12T14:33:48.608Z,0.28
2022-09-12T14:48:48.634Z,0.27
2022-09-12T15:03:49.747Z,0.37
2022-09-12T15:18:48.797Z,0.31
2022-09-12T15:33:48.956Z,0.29
2022-09-12T15:48:49.201Z,0.51
2022-09-12T16:03:48.629Z,0.59
2022-09-12T16:18:48.858Z,0.58
2022-09-12T16:33:49.150Z,0.61
2022-09-12T16:48:51.992Z,0.67
2022-09-12T17:03:49.404Z,1.87
2022-09-12T17:18:49.291Z,0.94
2022-09-12T17:33:48.854Z,1.8
2022-09-12T17:48:48.820Z,2.89
2022-09-12T18:03:49.366Z,2.31
2022-09-12T18:18:48.683Z,1.35
2022-09-12T18:33:49.237Z,0.99
2022-09-12T18:48:48.657Z,1.86
2022-09-12T19:03:48.622Z,1.27
2022-09-12T19:18:49.299Z,1.37
2022-09-12T19:33:49.449Z,1.71
2022-09-12T19:48:49.294Z,2.62
2022-09-12T20:03:49.338Z,2.81
2022-09-12T20:18:48.782Z,1.32
2022-09-12T20:33:51.681Z,1.48
2022-09-12T20:48:48.962Z,1.98
2022-09-12T21:03:49.401Z,1.84
2022-09-12T21:18:48.748Z,1.19
2022-09-12T21:33:49.192Z,0.99
2022-09-12T21:48:49.416Z,0.66
2022-09-12T22:03:49.121Z,1.01
2022-09-12T22:18:48.605Z,1
2022-09-12T22:33:48.970Z,0.41
2022-09-12T22:48:48.820Z,0.65
2022-09-12T23:03:49.390Z,0.45
2022-09-12T23:18:49.431Z,0.46
2022-09-12T23:33:48.644Z,0.83
2022-09-12T23:48:49.222Z,0.64
